createdAt,value
2023-08-28T00:00:42.043Z,95815.35
2023-08-28T00:03:30.805Z,95817.51
2023-08-28T00:05:59.125Z,95815.86
2023-08-28T00:08:27.565Z,95815.75
2023-08-28T00:10:55.884Z,95815.60
2023-08-28T00:13:24.186Z,95817.11
2023-08-28T00:15:53.561Z,95816.16
2023-08-28T00:18:21.894Z,95814.59
2023-08-28T00:20:50.208Z,95812.67
2023-08-28T00:23:18.966Z,95819.13
2023-08-28T00:25:47.361Z,95814.27
2023-08-28T00:28:15.769Z,95819.09
2023-08-28T00:30:44.200Z,95816.39
2023-08-28T00:33:12.614Z,95810.89
2023-08-28T00:35:41.635Z,95810.99
2023-08-28T00:38:13.688Z,95811.61
2023-08-28T00:40:42.084Z,95805.17
2023-08-28T00:43:10.482Z,95806.67
2023-08-28T00:45:43.401Z,95808.52
2023-08-28T00:48:15.680Z,95809.06
2023-08-28T00:50:45.559Z,95808.27
2023-08-28T00:53:14.676Z,95810.43
2023-08-28T00:55:44.487Z,95804.46
2023-08-28T00:58:14.183Z,95803.69
2023-08-28T01:00:42.758Z,95803.48
2023-08-28T01:03:11.253Z,95803.48
2023-08-28T01:06:15.123Z,95807.13
2023-08-28T01:09:00.639Z,95808.55
2023-08-28T01:11:57.513Z,95805.58
2023-08-28T01:14:30.592Z,95807.54
2023-08-28T01:17:08.299Z,95806.73
2023-08-28T01:19:43.641Z,95805.63
2023-08-28T01:22:40.366Z,95808.98
2023-08-28T01:25:13.476Z,95811.71
2023-08-28T01:27:43.069Z,95814.13
2023-08-28T01:30:16.191Z,95816.27
2023-08-28T01:32:46.485Z,95815.95
2023-08-28T01:35:14.719Z,95818.46
2023-08-28T01:37:59.144Z,95816.75
2023-08-28T01:41:06.642Z,95814.80
2023-08-28T01:44:16.542Z,95810.62
2023-08-28T01:46:47.416Z,95804.05
2023-08-28T01:49:15.912Z,95803.64
2023-08-28T01:51:44.729Z,95798.11
2023-08-28T01:54:13.084Z,95797.86
2023-08-28T01:56:41.386Z,95797.13
2023-08-28T01:59:09.754Z,95798.52
2023-08-28T02:01:38.964Z,95800.45
2023-08-28T02:04:07.573Z,95797.98
2023-08-28T02:06:37.012Z,95797.47
2023-08-28T02:09:50.914Z,95794.45
2023-08-28T02:12:19.159Z,95793.72
2023-08-28T02:14:47.889Z,95794.11
2023-08-28T02:17:16.578Z,95793.95
2023-08-28T02:19:44.982Z,95796.59
2023-08-28T02:22:13.378Z,95796.87
2023-08-28T02:24:41.701Z,95794.67
2023-08-28T02:27:10.084Z,95791.11
2023-08-28T02:29:38.381Z,95788.59
2023-08-28T02:32:06.921Z,95786.45
2023-08-28T02:34:35.682Z,95782.06
2023-08-28T02:37:05.205Z,95783.18
2023-08-28T02:39:33.585Z,95782.73
2023-08-28T02:42:01.974Z,95780.73
2023-08-28T02:44:30.246Z,95783.14
2023-08-28T02:46:58.521Z,95785.76
2023-08-28T02:49:26.849Z,95788.45
2023-08-28T02:51:55.137Z,95785.19
2023-08-28T02:54:23.504Z,95792.91
2023-08-28T02:56:51.820Z,95800.02
2023-08-28T02:59:20.140Z,95805.16
2023-08-28T03:01:48.522Z,95806.08
2023-08-28T03:04:16.897Z,95802.46
2023-08-28T03:06:45.114Z,95804.47
2023-08-28T03:09:16.143Z,95805.89
2023-08-28T03:12:32.341Z,95802.92
2023-08-28T03:15:00.765Z,95806.83
2023-08-28T03:17:29.227Z,95806.88
2023-08-28T03:19:58.576Z,95806.64
2023-08-28T03:22:27.095Z,95806.27
2023-08-28T03:24:55.520Z,95805.29
2023-08-28T03:27:23.874Z,95804.73
2023-08-28T03:29:52.652Z,95799.52
2023-08-28T03:32:21.035Z,95797.25
2023-08-28T03:34:51.057Z,95801.83
2023-08-28T03:37:19.388Z,95804.54
2023-08-28T03:39:47.764Z,95806.40
2023-08-28T03:42:16.178Z,95812.52
2023-08-28T03:44:44.572Z,95817.23
2023-08-28T03:47:12.909Z,95826.38
2023-08-28T03:49:41.442Z,95827.83
2023-08-28T03:52:09.759Z,95829.58
2023-08-28T03:54:38.097Z,95832.59
2023-08-28T03:57:07.487Z,95832.20
2023-08-28T03:59:36.450Z,95828.04
2023-08-28T04:02:04.865Z,95833.83
2023-08-28T04:04:33.142Z,95831.30
2023-08-28T04:07:04.496Z,95829.36
2023-08-28T04:09:32.872Z,95827.73
2023-08-28T04:12:01.605Z,95825.67
2023-08-28T04:14:31.629Z,95827.67
2023-08-28T04:17:00.044Z,95827.19
2023-08-28T04:19:28.364Z,95830.54
2023-08-28T04:21:56.677Z,95827.38
2023-08-28T04:24:26.052Z,95825.95
2023-08-28T04:26:54.448Z,95825.63
2023-08-28T04:29:23.253Z,95828.10
2023-08-28T04:31:51.601Z,95829.11
2023-08-28T04:34:20.173Z,95830.39
2023-08-28T04:36:48.888Z,95833.22
2023-08-28T04:39:17.294Z,95831.30
2023-08-28T04:41:45.663Z,95831.76
2023-08-28T04:44:13.981Z,95831.66
2023-08-28T04:46:42.618Z,95827.51
2023-08-28T04:49:11.434Z,95823.53
2023-08-28T04:51:39.757Z,95825.02
2023-08-28T04:54:08.162Z,95820.75
2023-08-28T04:56:36.639Z,95819.60
2023-08-28T04:59:05.197Z,95818.92
2023-08-28T05:01:34.202Z,95823.48
2023-08-28T05:04:02.795Z,95818.23
2023-08-28T05:06:31.207Z,95812.85
2023-08-28T05:08:59.561Z,95810.48
2023-08-28T05:11:27.902Z,95809.77
2023-08-28T05:13:56.338Z,95806.69
2023-08-28T05:16:31.545Z,95807.84
2023-08-28T05:18:59.962Z,95808.64
2023-08-28T05:21:28.221Z,95809.31
2023-08-28T05:23:56.501Z,95811.15
2023-08-28T05:26:24.819Z,95813.02
2023-08-28T05:28:54.822Z,95818.56
2023-08-28T05:31:23.324Z,95817.98
2023-08-28T05:33:52.066Z,95817.62
2023-08-28T05:36:21.747Z,95819.39
2023-08-28T05:38:50.081Z,95825.20
2023-08-28T05:41:18.416Z,95825.82
2023-08-28T05:43:48.625Z,95825.55
2023-08-28T05:46:17.320Z,95826.15
2023-08-28T05:48:45.807Z,95826.15
2023-08-28T05:51:14.117Z,95830.87
2023-08-28T05:53:44.553Z,95826.18
2023-08-28T05:56:13.102Z,95826.02
2023-08-28T05:58:42.020Z,95826.34
2023-08-28T06:01:10.591Z,95829.89
2023-08-28T06:03:40.484Z,95828.56
2023-08-28T06:06:13.628Z,95830.27
2023-08-28T06:08:41.983Z,95832.14
2023-08-28T06:11:10.501Z,95830.11
2023-08-28T06:13:38.899Z,95825.36
2023-08-28T06:16:07.446Z,95820.61
2023-08-28T06:18:36.269Z,95817.77
2023-08-28T06:21:05.194Z,95814.84
2023-08-28T06:23:33.621Z,95813.16
2023-08-28T06:26:02.110Z,95811.72
2023-08-28T06:28:30.880Z,95809.22
2023-08-28T06:31:00.696Z,95802.96
2023-08-28T06:33:29.084Z,95804.58
2023-08-28T06:35:57.504Z,95807.07
2023-08-28T06:38:25.900Z,95813.02
2023-08-28T06:40:55.047Z,95814.23
2023-08-28T06:43:23.365Z,95817.35
2023-08-28T06:45:51.663Z,95820.21
2023-08-28T06:48:20.012Z,95825.00
2023-08-28T06:50:48.361Z,95824.27
2023-08-28T06:53:16.711Z,95832.30
2023-08-28T06:55:45.074Z,95837.52
2023-08-28T06:58:13.942Z,95834.61
2023-08-28T07:00:42.392Z,95833.85
2023-08-28T07:03:10.857Z,95832.08
2023-08-28T07:05:40.570Z,95826.16
2023-08-28T07:08:09.013Z,95821.87
2023-08-28T07:10:37.501Z,95819.56
2023-08-28T07:13:06.144Z,95821.16
2023-08-28T07:15:54.958Z,95818.19
2023-08-28T07:18:37.335Z,95815.78
2023-08-28T07:21:06.600Z,95811.86
2023-08-28T07:23:35.151Z,95814.19
2023-08-28T07:26:04.369Z,95814.98
2023-08-28T07:28:32.835Z,95814.73
2023-08-28T07:31:03.658Z,95810.98
2023-08-28T07:33:32.000Z,95812.27
2023-08-28T07:36:00.430Z,95809.41
2023-08-28T07:38:28.903Z,95808.52
2023-08-28T07:40:57.302Z,95809.88
2023-08-28T07:43:25.999Z,95809.59
2023-08-28T07:45:54.446Z,95811.12
2023-08-28T07:48:22.988Z,95809.17
2023-08-28T07:50:51.545Z,95808.98
2023-08-28T07:53:19.881Z,95809.20
2023-08-28T07:55:48.290Z,95806.56
2023-08-28T07:58:19.371Z,95811.02
2023-08-28T08:00:50.158Z,95816.45
2023-08-28T08:03:23.894Z,95811.97
2023-08-28T08:05:53.999Z,95814.57
2023-08-28T08:08:22.884Z,95813.55
2023-08-28T08:10:51.472Z,95809.55
2023-08-28T08:13:19.847Z,95807.89
2023-08-28T08:15:48.309Z,95798.45
2023-08-28T08:18:16.793Z,95792.59
2023-08-28T08:20:45.345Z,95790.55
2023-08-28T08:23:13.712Z,95787.39
2023-08-28T08:25:42.149Z,95787.73
2023-08-28T08:28:10.509Z,95782.13
2023-08-28T08:30:38.840Z,95774.39
2023-08-28T08:33:07.464Z,95771.02
2023-08-28T08:35:36.302Z,95768.43
2023-08-28T08:38:04.819Z,95765.88
2023-08-28T08:40:35.836Z,95762.14
2023-08-28T08:43:04.640Z,95759.91
2023-08-28T08:45:38.587Z,95755.69
2023-08-28T08:48:11.243Z,95753.16
2023-08-28T08:50:40.500Z,95753.54
2023-08-28T08:53:52.584Z,95748.70
2023-08-28T08:56:23.303Z,95746.66
2023-08-28T08:58:51.893Z,95742.18
2023-08-28T09:01:21.175Z,95737.21
2023-08-28T09:03:50.194Z,95731.48
2023-08-28T09:06:19.361Z,95724.05
2023-08-28T09:08:48.096Z,95722.36
2023-08-28T09:11:16.475Z,95719.50
2023-08-28T09:13:45.344Z,95717.35
2023-08-28T09:16:14.275Z,95716.39
2023-08-28T09:18:43.456Z,95716.81
2023-08-28T09:21:41.201Z,95717.25
2023-08-28T09:24:11.136Z,95714.39
2023-08-28T09:26:40.169Z,95712.27
2023-08-28T09:29:10.170Z,95710.86
2023-08-28T09:31:44.224Z,95709.56
2023-08-28T09:34:12.992Z,95708.64
2023-08-28T09:36:45.178Z,95709.71
2023-08-28T09:39:17.758Z,95707.89
2023-08-28T09:41:50.721Z,95702.43
2023-08-28T09:44:22.374Z,95701.15
2023-08-28T09:46:51.197Z,95699.69
2023-08-28T09:49:19.718Z,95698.90
2023-08-28T09:51:50.501Z,95696.81
2023-08-28T09:54:19.334Z,95697.60
2023-08-28T09:56:47.647Z,95692.30
2023-08-28T09:59:16.996Z,95686.58
2023-08-28T10:01:47.957Z,95683.48
2023-08-28T10:04:20.498Z,95682.73
2023-08-28T10:06:54.524Z,95685.55
2023-08-28T10:09:24.110Z,95684.48
2023-08-28T10:11:53.396Z,95677.83
2023-08-28T10:14:25.042Z,95674.67
2023-08-28T10:17:04.154Z,95672.53
2023-08-28T10:19:38.372Z,95674.07
2023-08-28T10:22:09.568Z,95674.44
2023-08-28T10:24:41.575Z,95672.66
2023-08-28T10:27:11.919Z,95671.01
2023-08-28T10:29:41.846Z,95666.47
2023-08-28T10:32:11.754Z,95665.33
2023-08-28T10:34:43.844Z,95662.19
2023-08-28T10:37:27.896Z,95654.13
2023-08-28T10:40:03.204Z,95645.08
2023-08-28T10:42:32.832Z,95639.90
2023-08-28T10:45:03.076Z,95632.56
2023-08-28T10:47:32.175Z,95629.79
2023-08-28T10:50:00.726Z,95628.11
2023-08-28T10:52:29.751Z,95626.52
2023-08-28T10:55:01.050Z,95617.84
2023-08-28T10:57:31.257Z,95615.06
2023-08-28T11:00:16.411Z,95615.72
2023-08-28T11:03:06.902Z,95610.76
2023-08-28T11:05:37.867Z,95615.15
2023-08-28T11:08:12.599Z,95614.71
2023-08-28T11:10:50.762Z,95613.16
2023-08-28T11:13:26.704Z,95601.73
2023-08-28T11:16:05.530Z,95601.26
2023-08-28T11:18:39.211Z,95602.77
2023-08-28T11:21:08.421Z,95599.71
2023-08-28T11:23:41.201Z,95586.00
2023-08-28T11:26:30.770Z,95585.36
2023-08-28T11:28:59.085Z,95585.73
2023-08-28T11:31:34.987Z,95581.92
2023-08-28T11:34:05.302Z,95577.65
2023-08-28T11:36:40.694Z,95580.95
2023-08-28T11:39:21.485Z,95575.03
2023-08-28T11:41:50.709Z,95569.29
2023-08-28T11:44:19.205Z,95567.39
2023-08-28T11:46:47.498Z,95565.16
2023-08-28T11:49:15.859Z,95567.39
2023-08-28T11:51:44.249Z,95562.33
2023-08-28T11:54:12.619Z,95557.23
2023-08-28T11:56:43.077Z,95553.08
2023-08-28T11:59:11.452Z,95550.88
2023-08-28T12:01:39.913Z,95549.39
2023-08-28T12:04:09.128Z,95542.52
2023-08-28T12:06:41.086Z,95537.48
2023-08-28T12:09:14.083Z,95535.52
2023-08-28T12:11:43.312Z,95536.21
2023-08-28T12:14:16.590Z,95529.84
2023-08-28T12:16:44.994Z,95531.88
2023-08-28T12:19:21.270Z,95534.05
2023-08-28T12:21:49.654Z,95529.71
2023-08-28T12:24:18.369Z,95531.71
2023-08-28T12:26:46.754Z,95529.27
2023-08-28T12:29:15.121Z,95526.27
2023-08-28T12:31:43.427Z,95522.20
2023-08-28T12:34:11.944Z,95515.35
2023-08-28T12:36:47.001Z,95514.05
2023-08-28T12:39:22.964Z,95515.36
2023-08-28T12:41:56.368Z,95511.87
2023-08-28T12:44:26.069Z,95510.02
2023-08-28T12:46:54.842Z,95511.86
2023-08-28T12:49:23.760Z,95508.82
2023-08-28T12:51:52.211Z,95508.00
2023-08-28T12:54:20.919Z,95502.23
2023-08-28T12:56:50.468Z,95501.58
2023-08-28T12:59:20.088Z,95500.43
2023-08-28T13:01:49.695Z,95497.23
2023-08-28T13:04:28.288Z,95502.92
2023-08-28T13:06:56.658Z,95501.66
2023-08-28T13:09:25.123Z,95499.39
2023-08-28T13:11:53.870Z,95492.73
2023-08-28T13:14:22.156Z,95489.98
2023-08-28T13:16:50.541Z,95482.27
2023-08-28T13:19:19.754Z,95490.08
2023-08-28T13:21:49.243Z,95486.81
2023-08-28T13:24:18.938Z,95487.38
2023-08-28T13:26:51.953Z,95480.38
2023-08-28T13:29:20.276Z,95487.73
2023-08-28T13:31:48.657Z,95489.69
2023-08-28T13:34:17.042Z,95488.41
2023-08-28T13:36:45.347Z,95490.31
2023-08-28T13:39:13.659Z,95480.45
2023-08-28T13:41:41.935Z,95479.80
2023-08-28T13:44:10.844Z,95474.13
2023-08-28T13:46:40.552Z,95473.98
2023-08-28T13:49:08.833Z,95479.08
2023-08-28T13:51:37.181Z,95479.31
2023-08-28T13:54:05.567Z,95478.45
2023-08-28T13:56:33.865Z,95474.91
2023-08-28T13:59:05.944Z,95473.05
2023-08-28T14:01:35.152Z,95466.54
2023-08-28T14:04:03.757Z,95469.38
2023-08-28T14:06:32.204Z,95467.16
2023-08-28T14:09:00.575Z,95463.20
2023-08-28T14:11:28.904Z,95463.56
2023-08-28T14:13:57.261Z,95462.88
2023-08-28T14:16:25.770Z,95465.30
2023-08-28T14:18:54.117Z,95461.59
2023-08-28T14:21:22.626Z,95459.42
2023-08-28T14:23:50.943Z,95452.95
2023-08-28T14:26:19.325Z,95451.80
2023-08-28T14:28:47.739Z,95452.88
2023-08-28T14:31:16.194Z,95457.77
2023-08-28T14:33:44.741Z,95458.09
2023-08-28T14:36:14.206Z,95454.80
2023-08-28T14:38:42.614Z,95451.48
2023-08-28T14:41:10.945Z,95447.87
2023-08-28T14:43:39.299Z,95447.11
2023-08-28T14:46:07.665Z,95444.04
2023-08-28T14:48:35.941Z,95444.91
2023-08-28T14:51:04.350Z,95447.14
2023-08-28T14:53:32.703Z,95445.05
2023-08-28T14:56:01.047Z,95440.80
2023-08-28T14:58:29.358Z,95440.98
2023-08-28T15:00:57.815Z,95439.53
2023-08-28T15:03:26.545Z,95439.92
2023-08-28T15:05:54.937Z,95437.48
2023-08-28T15:08:23.326Z,95433.61
2023-08-28T15:10:51.753Z,95435.69
2023-08-28T15:13:20.139Z,95431.95
2023-08-28T15:15:50.517Z,95432.43
2023-08-28T15:18:19.500Z,95430.23
2023-08-28T15:20:48.773Z,95428.64
2023-08-28T15:23:17.174Z,95425.82
2023-08-28T15:25:45.702Z,95426.61
2023-08-28T15:28:14.022Z,95425.41
2023-08-28T15:30:42.370Z,95423.75
2023-08-28T15:33:13.140Z,95419.77
2023-08-28T15:35:41.650Z,95418.69
2023-08-28T15:38:10.152Z,95419.37
2023-08-28T15:40:38.492Z,95420.35
2023-08-28T15:43:07.356Z,95415.88
2023-08-28T15:45:36.077Z,95413.38
2023-08-28T15:48:06.659Z,95405.88
2023-08-28T15:50:35.461Z,95406.95
2023-08-28T15:53:04.401Z,95405.04
2023-08-28T15:55:33.044Z,95408.45
2023-08-28T15:58:01.354Z,95404.40
2023-08-28T16:00:29.663Z,95405.64
2023-08-28T16:02:58.133Z,95408.02
2023-08-28T16:05:28.898Z,95408.56
2023-08-28T16:07:57.262Z,95409.30
2023-08-28T16:10:25.671Z,95409.70
2023-08-28T16:12:54.077Z,95413.13
2023-08-28T16:15:22.482Z,95414.90
2023-08-28T16:17:50.972Z,95416.40
2023-08-28T16:20:19.410Z,95414.92
2023-08-28T16:22:47.757Z,95413.30
2023-08-28T16:25:16.311Z,95415.84
2023-08-28T16:27:45.379Z,95413.73
2023-08-28T16:30:14.183Z,95413.27
2023-08-28T16:32:42.714Z,95412.48
2023-08-28T16:35:11.662Z,95410.02
2023-08-28T16:37:40.058Z,95412.27
2023-08-28T16:40:08.927Z,95420.63
2023-08-28T16:42:37.231Z,95419.05
2023-08-28T16:45:06.632Z,95418.98
2023-08-28T16:47:34.999Z,95414.77
2023-08-28T16:50:04.489Z,95420.69
2023-08-28T16:52:32.908Z,95424.33
2023-08-28T16:55:01.182Z,95424.20
2023-08-28T16:57:29.612Z,95424.80
2023-08-28T16:59:58.076Z,95423.56
2023-08-28T17:02:26.413Z,95423.48
2023-08-28T17:04:54.833Z,95424.16
2023-08-28T17:07:23.168Z,95424.41
2023-08-28T17:09:51.948Z,95424.83
2023-08-28T17:12:20.277Z,95425.73
2023-08-28T17:14:48.595Z,95422.67
2023-08-28T17:17:16.924Z,95419.45
2023-08-28T17:19:45.299Z,95421.19
2023-08-28T17:22:13.675Z,95419.55
2023-08-28T17:24:41.962Z,95422.16
2023-08-28T17:27:10.262Z,95414.90
2023-08-28T17:29:38.550Z,95419.21
2023-08-28T17:32:07.146Z,95417.05
2023-08-28T17:34:35.415Z,95419.82
2023-08-28T17:37:03.987Z,95425.40
2023-08-28T17:39:32.301Z,95425.91
2023-08-28T17:42:00.679Z,95427.38
2023-08-28T17:44:29.147Z,95427.84
2023-08-28T17:46:57.560Z,95431.66
2023-08-28T17:49:25.987Z,95435.83
2023-08-28T17:51:54.586Z,95435.54
2023-08-28T17:54:23.205Z,95432.77
2023-08-28T17:56:51.541Z,95433.80
2023-08-28T17:59:19.833Z,95428.46
2023-08-28T18:01:48.209Z,95428.16
2023-08-28T18:04:16.732Z,95430.86
2023-08-28T18:06:46.712Z,95426.02
2023-08-28T18:09:15.033Z,95430.14
2023-08-28T18:11:47.276Z,95430.79
2023-08-28T18:14:15.990Z,95425.00
2023-08-28T18:16:47.411Z,95428.58
2023-08-28T18:19:16.927Z,95427.79
2023-08-28T18:21:45.289Z,95431.80
2023-08-28T18:24:13.649Z,95429.05
2023-08-28T18:26:42.264Z,95430.58
2023-08-28T18:29:10.869Z,95428.89
2023-08-28T18:31:39.434Z,95426.11
2023-08-28T18:34:07.883Z,95427.38
2023-08-28T18:36:36.815Z,95429.67
2023-08-28T18:39:06.445Z,95427.70
2023-08-28T18:41:36.630Z,95423.46
2023-08-28T18:44:06.601Z,95422.23
2023-08-28T18:46:36.735Z,95422.94
2023-08-28T18:49:05.531Z,95423.73
2023-08-28T18:51:34.179Z,95417.66
2023-08-28T18:54:02.591Z,95418.79
2023-08-28T18:56:31.108Z,95419.52
2023-08-28T18:58:59.619Z,95418.80
2023-08-28T19:01:30.051Z,95418.20
2023-08-28T19:03:58.526Z,95412.24
2023-08-28T19:06:26.938Z,95413.52
2023-08-28T19:08:56.119Z,95412.34
2023-08-28T19:11:24.617Z,95411.88
2023-08-28T19:13:53.255Z,95413.45
2023-08-28T19:16:21.822Z,95412.52
2023-08-28T19:18:50.457Z,95413.42
2023-08-28T19:21:18.900Z,95413.05
2023-08-28T19:23:48.145Z,95414.42
2023-08-28T19:26:16.576Z,95409.85
2023-08-28T19:28:45.049Z,95409.05
2023-08-28T19:31:13.564Z,95406.27
2023-08-28T19:33:42.426Z,95404.25
2023-08-28T19:36:10.772Z,95404.46
2023-08-28T19:38:39.077Z,95403.43
2023-08-28T19:41:07.896Z,95398.90
2023-08-28T19:43:36.382Z,95396.34
2023-08-28T19:46:04.795Z,95389.46
2023-08-28T19:48:33.526Z,95390.44
2023-08-28T19:51:04.854Z,95386.84
2023-08-28T19:53:33.563Z,95387.83
2023-08-28T19:56:12.841Z,95390.52
2023-08-28T19:58:41.471Z,95396.14
2023-08-28T20:01:10.073Z,95396.13
2023-08-28T20:03:38.469Z,95393.36
2023-08-28T20:06:07.201Z,95393.77
2023-08-28T20:08:35.882Z,95391.85
2023-08-28T20:11:06.478Z,95389.55
2023-08-28T20:13:34.988Z,95390.31
2023-08-28T20:16:03.669Z,95391.02
2023-08-28T20:18:33.664Z,95396.67
2023-08-28T20:21:02.037Z,95395.41
2023-08-28T20:23:30.500Z,95404.48
2023-08-28T20:26:01.489Z,95403.13
2023-08-28T20:28:29.912Z,95394.89
2023-08-28T20:30:58.170Z,95398.30
2023-08-28T20:33:26.534Z,95397.77
2023-08-28T20:35:54.933Z,95398.23
2023-08-28T20:38:25.711Z,95403.68
2023-08-28T20:40:54.069Z,95402.96
2023-08-28T20:43:23.489Z,95397.42
2023-08-28T20:46:04.599Z,95402.51
2023-08-28T20:48:37.038Z,95398.31
2023-08-28T20:51:13.401Z,95395.30
2023-08-28T20:53:54.278Z,95396.75
2023-08-28T20:56:30.153Z,95394.59
2023-08-28T20:58:58.801Z,95397.44
2023-08-28T21:01:27.639Z,95395.34
2023-08-28T21:03:56.233Z,95397.88
2023-08-28T21:06:24.800Z,95392.20
2023-08-28T21:08:55.412Z,95387.44
2023-08-28T21:11:23.870Z,95391.99
2023-08-28T21:13:52.222Z,95388.80
2023-08-28T21:16:32.635Z,95387.85
2023-08-28T21:19:08.104Z,95383.60
2023-08-28T21:21:36.764Z,95381.91
2023-08-28T21:24:05.706Z,95386.28
2023-08-28T21:26:34.027Z,95383.70
2023-08-28T21:29:02.326Z,95383.86
2023-08-28T21:31:30.680Z,95389.11
2023-08-28T21:33:59.001Z,95390.95
2023-08-28T21:36:27.381Z,95392.14
2023-08-28T21:38:55.695Z,95389.52
2023-08-28T21:41:24.077Z,95386.98
2023-08-28T21:43:52.416Z,95395.23
2023-08-28T21:46:20.736Z,95396.23
2023-08-28T21:48:49.040Z,95400.21
2023-08-28T21:51:35.731Z,95399.30
2023-08-28T21:54:22.589Z,95398.45
2023-08-28T21:57:09.266Z,95396.45
2023-08-28T21:59:56.546Z,95394.55
2023-08-28T22:02:43.242Z,95397.55
2023-08-28T22:05:30.169Z,95404.60
2023-08-28T22:07:58.394Z,95411.58
2023-08-28T22:10:56.199Z,95412.97
2023-08-28T22:13:35.193Z,95413.99
2023-08-28T22:16:04.004Z,95412.34
2023-08-28T22:18:32.567Z,95412.30
2023-08-28T22:21:01.691Z,95412.17
2023-08-28T22:23:30.208Z,95410.32
2023-08-28T22:25:58.733Z,95411.45
2023-08-28T22:28:27.005Z,95410.04
2023-08-28T22:30:55.447Z,95405.77
2023-08-28T22:33:23.888Z,95402.54
2023-08-28T22:35:52.237Z,95403.91
2023-08-28T22:38:20.842Z,95405.63
2023-08-28T22:40:49.229Z,95406.96
2023-08-28T22:43:17.658Z,95408.28
2023-08-28T22:45:46.143Z,95404.79
2023-08-28T22:48:14.506Z,95402.22
2023-08-28T22:50:42.825Z,95402.63
2023-08-28T22:53:11.225Z,95397.99
2023-08-28T22:55:39.581Z,95399.01
2023-08-28T22:58:08.082Z,95400.12
2023-08-28T23:00:36.655Z,95401.23
2023-08-28T23:03:05.291Z,95403.45
2023-08-28T23:05:33.727Z,95403.11
2023-08-28T23:08:02.139Z,95401.94
2023-08-28T23:10:30.460Z,95403.41
2023-08-28T23:12:58.755Z,95399.10
2023-08-28T23:15:27.025Z,95402.18
2023-08-28T23:17:55.414Z,95402.59
2023-08-28T23:20:24.147Z,95405.18
2023-08-28T23:22:52.510Z,95404.89
2023-08-28T23:25:20.784Z,95402.84
2023-08-28T23:27:49.353Z,95398.34
2023-08-28T23:30:17.745Z,95392.68
2023-08-28T23:32:46.120Z,95386.65
2023-08-28T23:35:14.520Z,95386.61
2023-08-28T23:37:42.813Z,95393.05
2023-08-28T23:40:15.158Z,95394.34
2023-08-28T23:42:43.626Z,95393.30
2023-08-28T23:45:12.197Z,95386.23
2023-08-28T23:47:40.475Z,95389.70
2023-08-28T23:50:09.101Z,95389.21
2023-08-28T23:52:37.425Z,95395.99
2023-08-28T23:55:06.632Z,95398.06
2023-08-28T23:57:35.073Z,95399.41
